createdAt,value
2019-06-26T00:01:47.200Z,53.70
2019-06-26T00:04:13.579Z,53.87
2019-06-26T00:06:39.839Z,54.09
2019-06-26T00:09:07.767Z,54.20
2019-06-26T00:11:34.438Z,54.35
2019-06-26T00:14:01.276Z,54.50
2019-06-26T00:16:27.995Z,54.61
2019-06-26T00:18:58.328Z,54.69
2019-06-26T00:21:26.084Z,54.84
2019-06-26T00:23:52.832Z,54.94
2019-06-26T00:26:20.417Z,55.15
2019-06-26T00:28:46.755Z,55.26
2019-06-26T00:31:12.926Z,55.21
2019-06-26T00:33:39.246Z,55.48
2019-06-26T00:36:05.506Z,55.49
2019-06-26T00:38:31.844Z,55.68
2019-06-26T00:40:57.961Z,55.89
2019-06-26T00:43:24.180Z,56.13
2019-06-26T00:45:50.275Z,56.28
2019-06-26T00:48:16.569Z,56.42
2019-06-26T00:50:42.684Z,56.36
2019-06-26T00:53:09.041Z,56.31
2019-06-26T00:55:35.332Z,56.62
2019-06-26T00:58:01.625Z,56.94
2019-06-26T01:00:40.055Z,57.03
2019-06-26T01:03:06.235Z,57.04
2019-06-26T01:05:32.479Z,57.22
2019-06-26T01:07:58.756Z,57.29
2019-06-26T01:10:25.123Z,57.49
2019-06-26T01:12:51.288Z,57.39
2019-06-26T01:15:17.686Z,57.46
2019-06-26T01:17:43.911Z,57.56
2019-06-26T01:20:11.877Z,57.84
2019-06-26T01:22:38.200Z,57.81
2019-06-26T01:25:04.755Z,57.85
2019-06-26T01:27:32.215Z,57.98
2019-06-26T01:29:58.470Z,57.89
2019-06-26T01:32:24.713Z,58.07
2019-06-26T01:34:50.934Z,58.12
2019-06-26T01:37:17.097Z,58.26
2019-06-26T01:39:43.343Z,58.35
2019-06-26T01:42:09.592Z,58.41
2019-06-26T01:44:36.378Z,58.61
2019-06-26T01:47:03.316Z,58.74
2019-06-26T01:49:29.678Z,58.70
2019-06-26T01:51:55.878Z,58.86
2019-06-26T01:54:21.973Z,58.78
2019-06-26T01:56:48.282Z,58.72
2019-06-26T01:59:14.394Z,58.72
2019-06-26T02:01:40.699Z,58.71
2019-06-26T02:04:08.005Z,58.90
2019-06-26T02:06:34.314Z,58.83
2019-06-26T02:09:00.482Z,58.67
2019-06-26T02:11:28.537Z,58.54
2019-06-26T02:13:54.691Z,58.47
2019-06-26T02:16:20.984Z,58.33
2019-06-26T02:18:49.129Z,58.33
2019-06-26T02:21:15.315Z,58.35
2019-06-26T02:23:41.519Z,58.25
2019-06-26T02:26:07.719Z,58.08
2019-06-26T02:28:34.024Z,58.09
2019-06-26T02:31:00.234Z,58.11
2019-06-26T02:33:26.477Z,58.00
2019-06-26T02:35:52.827Z,58.00
2019-06-26T02:38:19.073Z,58.18
2019-06-26T02:40:45.274Z,58.20
2019-06-26T02:43:11.492Z,58.20
2019-06-26T02:45:37.803Z,58.17
2019-06-26T02:48:03.982Z,58.22
2019-06-26T02:50:30.178Z,58.26
2019-06-26T02:52:56.338Z,57.98
2019-06-26T02:55:22.544Z,58.02
2019-06-26T02:57:48.653Z,58.13
2019-06-26T03:00:14.944Z,58.25
2019-06-26T03:02:41.150Z,57.54
2019-06-26T03:05:07.397Z,57.66
2019-06-26T03:07:33.696Z,57.75
2019-06-26T03:09:59.900Z,57.70
2019-06-26T03:12:26.057Z,57.18
2019-06-26T03:15:07.793Z,57.34
2019-06-26T03:17:20.530Z,57.43
2019-06-26T03:19:46.738Z,57.04
2019-06-26T03:22:12.854Z,57.16
2019-06-26T03:24:39.068Z,57.14
2019-06-26T03:27:08.205Z,56.94
2019-06-26T03:29:33.456Z,56.70
2019-06-26T03:31:59.700Z,56.82
2019-06-26T03:34:26.039Z,56.28
2019-06-26T03:36:52.443Z,56.19
2019-06-26T03:39:18.887Z,56.29
2019-06-26T03:41:44.987Z,56.30
2019-06-26T03:44:11.299Z,55.81
2019-06-26T03:46:37.398Z,55.59
2019-06-26T03:49:04.306Z,55.09
2019-06-26T03:51:30.408Z,54.97
2019-06-26T03:53:56.608Z,55.25
2019-06-26T03:56:22.964Z,55.34
2019-06-26T03:58:49.187Z,55.33
2019-06-26T04:01:15.607Z,55.08
2019-06-26T04:03:41.734Z,55.17
2019-06-26T04:06:07.934Z,54.50
2019-06-26T04:08:34.037Z,54.69
2019-06-26T04:11:00.362Z,54.06
2019-06-26T04:13:26.443Z,54.19
2019-06-26T04:15:52.664Z,53.87
2019-06-26T04:18:18.897Z,54.03
2019-06-26T04:20:45.080Z,53.80
2019-06-26T04:23:11.234Z,53.76
2019-06-26T04:25:38.382Z,53.51
2019-06-26T04:28:06.421Z,53.61
2019-06-26T04:30:32.921Z,53.53
2019-06-26T04:32:59.062Z,53.47
2019-06-26T04:35:25.301Z,53.73
2019-06-26T04:37:51.455Z,53.49
2019-06-26T04:40:20.323Z,53.63
2019-06-26T04:42:45.861Z,53.65
2019-06-26T04:45:13.010Z,53.53
2019-06-26T04:47:39.372Z,53.70
2019-06-26T04:50:07.404Z,53.45
2019-06-26T04:52:33.650Z,53.73
2019-06-26T04:54:59.863Z,53.73
2019-06-26T04:57:25.967Z,53.89
2019-06-26T04:59:52.173Z,53.63
2019-06-26T05:02:18.421Z,53.72
2019-06-26T05:04:44.753Z,54.18
2019-06-26T05:07:10.929Z,54.17
2019-06-26T05:09:37.124Z,54.08
2019-06-26T05:12:03.427Z,53.75
2019-06-26T05:14:29.617Z,54.01
2019-06-26T05:16:55.818Z,54.31
2019-06-26T05:19:22.010Z,53.56
2019-06-26T05:21:48.280Z,53.65
2019-06-26T05:24:14.476Z,53.82
2019-06-26T05:26:40.614Z,53.26
2019-06-26T05:29:06.757Z,53.45
2019-06-26T05:31:33.005Z,53.21
2019-06-26T05:33:59.147Z,52.94
2019-06-26T05:36:25.347Z,52.87
2019-06-26T05:38:51.451Z,52.72
2019-06-26T05:41:17.643Z,52.79
2019-06-26T05:43:43.751Z,52.86
2019-06-26T05:46:09.938Z,52.95
2019-06-26T05:48:36.121Z,52.65
2019-06-26T05:51:02.623Z,52.83
2019-06-26T05:53:28.915Z,52.75
2019-06-26T05:55:55.141Z,52.88
2019-06-26T05:58:21.299Z,52.58
2019-06-26T06:00:47.478Z,52.68
2019-06-26T06:03:13.559Z,52.66
2019-06-26T06:05:39.878Z,52.54
2019-06-26T06:08:05.970Z,52.80
2019-06-26T06:10:33.187Z,52.86
2019-06-26T06:12:59.274Z,53.14
2019-06-26T06:15:25.575Z,53.48
2019-06-26T06:17:51.791Z,53.27
2019-06-26T06:20:24.551Z,53.63
2019-06-26T06:22:50.659Z,53.03
2019-06-26T06:25:16.975Z,53.77
2019-06-26T06:27:43.079Z,53.36
2019-06-26T06:30:09.392Z,53.20
2019-06-26T06:32:35.585Z,52.92
2019-06-26T06:35:02.225Z,53.30
2019-06-26T06:37:28.423Z,52.97
2019-06-26T06:39:54.642Z,52.47
2019-06-26T06:42:20.987Z,52.29
2019-06-26T06:44:47.519Z,52.16
2019-06-26T06:47:13.930Z,51.65
2019-06-26T06:49:40.182Z,52.25
2019-06-26T06:52:06.626Z,51.82
2019-06-26T06:54:32.865Z,51.86
2019-06-26T06:56:59.176Z,51.79
2019-06-26T06:59:25.272Z,51.86
2019-06-26T07:01:51.497Z,52.43
2019-06-26T07:04:17.604Z,52.40
2019-06-26T07:06:43.797Z,51.61
2019-06-26T07:09:09.955Z,51.56
2019-06-26T07:11:36.295Z,51.32
2019-06-26T07:14:03.445Z,51.60
2019-06-26T07:16:29.712Z,51.47
2019-06-26T07:19:00.527Z,51.60
2019-06-26T07:21:27.441Z,51.36
2019-06-26T07:23:53.724Z,51.46
2019-06-26T07:26:20.044Z,51.69
2019-06-26T07:28:46.288Z,51.05
2019-06-26T07:31:12.672Z,51.07
2019-06-26T07:33:39.015Z,51.28
2019-06-26T07:36:05.284Z,50.40
2019-06-26T07:38:31.459Z,51.14
2019-06-26T07:40:57.549Z,50.57
2019-06-26T07:43:23.869Z,50.46
2019-06-26T07:45:50.064Z,50.58
2019-06-26T07:48:16.258Z,50.83
2019-06-26T07:50:42.424Z,51.19
2019-06-26T07:53:08.555Z,50.58
2019-06-26T07:55:34.723Z,50.36
2019-06-26T07:58:00.850Z,50.36
2019-06-26T08:00:30.447Z,50.29
2019-06-26T08:02:55.304Z,49.75
2019-06-26T08:05:21.460Z,50.06
2019-06-26T08:07:47.657Z,49.51
2019-06-26T08:10:14.316Z,49.12
2019-06-26T08:12:40.476Z,48.97
2019-06-26T08:15:07.556Z,47.91
2019-06-26T08:17:33.948Z,48.50
2019-06-26T08:20:00.130Z,47.15
2019-06-26T08:22:26.314Z,47.03
2019-06-26T08:24:52.515Z,47.88
2019-06-26T08:27:18.716Z,47.58
2019-06-26T08:29:44.805Z,47.34
2019-06-26T08:32:10.997Z,47.30
2019-06-26T08:34:37.096Z,46.89
2019-06-26T08:37:03.506Z,47.22
2019-06-26T08:39:29.654Z,47.17
2019-06-26T08:41:55.877Z,47.63
2019-06-26T08:44:22.067Z,45.93
2019-06-26T08:46:48.264Z,46.14
2019-06-26T08:49:24.872Z,45.23
2019-06-26T08:51:42.472Z,45.24
2019-06-26T08:54:08.610Z,45.03
2019-06-26T08:56:34.760Z,44.82
2019-06-26T08:59:00.986Z,45.27
2019-06-26T09:01:27.228Z,44.95
2019-06-26T09:03:53.327Z,45.12
2019-06-26T09:06:19.599Z,43.74
2019-06-26T09:08:45.721Z,43.55
2019-06-26T09:11:12.467Z,44.26
2019-06-26T09:13:38.734Z,44.63
2019-06-26T09:16:04.875Z,44.27
2019-06-26T09:18:35.919Z,44.15
2019-06-26T09:20:59.346Z,44.47
2019-06-26T09:23:25.482Z,44.02
2019-06-26T09:25:51.692Z,44.18
2019-06-26T09:28:17.927Z,44.72
2019-06-26T09:30:44.076Z,44.20
2019-06-26T09:33:11.219Z,44.17
2019-06-26T09:35:37.462Z,44.44
2019-06-26T09:38:03.902Z,43.08
2019-06-26T09:40:31.982Z,42.67
2019-06-26T09:42:58.383Z,43.21
2019-06-26T09:45:24.910Z,42.48
2019-06-26T09:47:51.008Z,41.87
2019-06-26T09:50:17.608Z,42.05
2019-06-26T09:52:43.816Z,42.16
2019-06-26T09:55:10.706Z,42.37
2019-06-26T09:57:37.061Z,41.79
2019-06-26T10:00:09.425Z,40.51
2019-06-26T10:02:35.945Z,40.28
2019-06-26T10:05:04.073Z,40.31
2019-06-26T10:07:30.339Z,40.38
2019-06-26T10:09:56.801Z,40.23
2019-06-26T10:12:22.930Z,39.03
2019-06-26T10:14:49.139Z,39.39
2019-06-26T10:17:15.338Z,39.24
2019-06-26T10:19:41.533Z,39.17
2019-06-26T10:22:07.724Z,39.58
2019-06-26T10:24:34.020Z,38.88
2019-06-26T10:27:01.163Z,38.51
2019-06-26T10:29:27.334Z,38.98
2019-06-26T10:31:53.462Z,38.72
2019-06-26T10:34:19.751Z,37.96
2019-06-26T10:36:45.980Z,38.32
2019-06-26T10:39:12.071Z,37.78
2019-06-26T10:41:38.386Z,37.45
2019-06-26T10:44:04.724Z,37.54
2019-06-26T10:46:30.961Z,37.44
2019-06-26T10:48:57.211Z,37.64
2019-06-26T10:51:23.480Z,37.48
2019-06-26T10:53:49.737Z,37.39
2019-06-26T10:56:16.430Z,37.45
2019-06-26T10:58:42.713Z,36.94
2019-06-26T11:01:08.997Z,36.85
2019-06-26T11:03:35.627Z,37.02
2019-06-26T11:06:01.832Z,36.82
2019-06-26T11:08:27.913Z,36.14
2019-06-26T11:10:54.173Z,36.81
2019-06-26T11:13:20.417Z,37.27
2019-06-26T11:15:47.563Z,36.70
2019-06-26T11:18:14.561Z,36.49
2019-06-26T11:20:40.686Z,35.32
2019-06-26T11:23:06.894Z,32.51
2019-06-26T11:25:33.042Z,31.20
2019-06-26T11:27:59.280Z,29.43
2019-06-26T11:30:26.596Z,28.71
2019-06-26T11:32:53.204Z,27.31
2019-06-26T11:35:19.407Z,27.31
2019-06-26T11:37:45.754Z,26.89
2019-06-26T11:40:13.507Z,24.93
2019-06-26T11:42:39.814Z,24.40
2019-06-26T11:45:07.794Z,24.29
2019-06-26T11:47:34.379Z,24.44
2019-06-26T11:50:00.657Z,23.30
2019-06-26T11:52:26.879Z,22.44
2019-06-26T11:55:02.623Z,21.90
2019-06-26T11:57:21.283Z,21.90
2019-06-26T11:59:47.440Z,22.18
2019-06-26T12:02:13.693Z,21.96
2019-06-26T12:04:39.851Z,20.92
2019-06-26T12:07:05.992Z,20.37
2019-06-26T12:09:32.150Z,20.21
2019-06-26T12:11:58.391Z,20.88
2019-06-26T12:14:24.545Z,20.55
2019-06-26T12:16:50.751Z,20.71
2019-06-26T12:19:19.907Z,19.88
2019-06-26T12:21:45.116Z,20.31
2019-06-26T12:24:11.419Z,19.16
2019-06-26T12:26:37.780Z,18.94
2019-06-26T12:29:04.060Z,19.09
2019-06-26T12:31:30.405Z,18.81
2019-06-26T12:33:57.528Z,17.66
2019-06-26T12:36:23.773Z,18.11
2019-06-26T12:38:50.071Z,18.56
2019-06-26T12:41:16.302Z,18.67
2019-06-26T12:43:42.540Z,18.37
2019-06-26T12:46:08.860Z,18.58
2019-06-26T12:48:35.121Z,18.08
2019-06-26T12:51:01.590Z,18.44
2019-06-26T12:53:27.826Z,17.90
2019-06-26T12:55:54.262Z,17.85
2019-06-26T12:58:20.600Z,18.05
2019-06-26T13:00:47.942Z,17.58
2019-06-26T13:03:14.143Z,17.92
2019-06-26T13:05:40.338Z,17.22
2019-06-26T13:08:06.424Z,17.47
2019-06-26T13:10:48.456Z,17.18
2019-06-26T13:13:00.635Z,17.96
2019-06-26T13:15:26.963Z,18.27
2019-06-26T13:17:53.030Z,17.71
2019-06-26T13:20:19.430Z,15.99
2019-06-26T13:22:45.596Z,16.54
2019-06-26T13:25:15.682Z,16.63
2019-06-26T13:27:40.375Z,16.90
2019-06-26T13:30:07.432Z,17.53
2019-06-26T13:32:33.828Z,17.11
2019-06-26T13:34:59.962Z,17.24
2019-06-26T13:37:26.155Z,16.64
2019-06-26T13:39:52.250Z,16.57
2019-06-26T13:42:18.471Z,17.35
2019-06-26T13:44:44.559Z,16.59
2019-06-26T13:47:10.876Z,16.49
2019-06-26T13:49:37.023Z,16.62
2019-06-26T13:52:03.291Z,16.46
2019-06-26T13:54:29.490Z,15.89
2019-06-26T13:56:55.647Z,15.74
2019-06-26T13:59:21.856Z,15.41
2019-06-26T14:01:48.026Z,15.83
2019-06-26T14:04:14.301Z,16.23
2019-06-26T14:06:40.527Z,16.53
2019-06-26T14:09:07.044Z,16.85
2019-06-26T14:11:37.801Z,17.63
2019-06-26T14:14:04.247Z,18.15
2019-06-26T14:16:30.597Z,18.95
2019-06-26T14:18:56.882Z,20.09
2019-06-26T14:21:26.006Z,19.89
2019-06-26T14:23:52.167Z,19.98
2019-06-26T14:26:18.310Z,19.44
2019-06-26T14:28:44.542Z,19.98
2019-06-26T14:31:11.865Z,20.32
2019-06-26T14:33:40.827Z,19.68
2019-06-26T14:36:07.186Z,19.10
2019-06-26T14:38:33.587Z,19.50
2019-06-26T14:41:00.018Z,19.85
2019-06-26T14:43:26.444Z,19.61
2019-06-26T14:45:52.644Z,19.12
2019-06-26T14:48:18.884Z,19.16
2019-06-26T14:50:45.074Z,19.14
2019-06-26T14:53:11.301Z,19.02
2019-06-26T14:55:37.657Z,19.12
2019-06-26T14:58:03.793Z,19.91
2019-06-26T15:00:30.038Z,20.32
2019-06-26T15:02:56.252Z,20.09
2019-06-26T15:05:22.409Z,20.53
2019-06-26T15:07:50.239Z,20.94
2019-06-26T15:10:17.494Z,20.77
2019-06-26T15:12:43.830Z,20.52
2019-06-26T15:15:10.490Z,19.95
2019-06-26T15:17:36.760Z,20.18
2019-06-26T15:20:05.042Z,19.78
2019-06-26T15:22:31.159Z,19.08
2019-06-26T15:24:57.362Z,19.84
2019-06-26T15:27:23.582Z,19.95
2019-06-26T15:29:49.773Z,20.14
2019-06-26T15:32:15.966Z,21.12
2019-06-26T15:34:42.268Z,21.69
2019-06-26T15:37:08.621Z,22.01
2019-06-26T15:39:34.988Z,22.24
2019-06-26T15:42:01.269Z,21.86
2019-06-26T15:44:28.178Z,22.01
2019-06-26T15:46:54.241Z,22.49
2019-06-26T15:49:20.438Z,22.53
2019-06-26T15:51:46.634Z,21.98
2019-06-26T15:54:12.852Z,22.10
2019-06-26T15:56:40.057Z,22.61
2019-06-26T15:59:06.299Z,22.39
2019-06-26T16:01:32.428Z,23.40
2019-06-26T16:03:58.587Z,23.52
2019-06-26T16:06:24.752Z,24.63
2019-06-26T16:08:50.962Z,24.84
2019-06-26T16:11:17.238Z,25.13
2019-06-26T16:13:43.390Z,25.21
2019-06-26T16:16:09.534Z,25.64
2019-06-26T16:18:37.599Z,26.18
2019-06-26T16:21:04.842Z,26.63
2019-06-26T16:23:30.989Z,27.76
2019-06-26T16:25:57.269Z,27.66
2019-06-26T16:28:23.449Z,27.76
2019-06-26T16:30:49.613Z,28.34
2019-06-26T16:33:15.884Z,28.41
2019-06-26T16:35:42.093Z,28.59
2019-06-26T16:38:08.464Z,28.57
2019-06-26T16:40:34.775Z,28.87
2019-06-26T16:43:01.168Z,29.26
2019-06-26T16:45:27.442Z,29.96
2019-06-26T16:47:54.557Z,29.62
2019-06-26T16:50:20.780Z,29.90
2019-06-26T16:52:49.603Z,29.38
2019-06-26T16:55:15.131Z,29.93
2019-06-26T16:57:41.232Z,29.99
2019-06-26T17:00:10.212Z,30.29
2019-06-26T17:02:36.830Z,30.07
2019-06-26T17:05:05.367Z,30.50
2019-06-26T17:07:31.827Z,30.85
2019-06-26T17:09:58.297Z,31.07
2019-06-26T17:12:24.612Z,30.96
2019-06-26T17:14:50.763Z,31.00
2019-06-26T17:17:17.139Z,31.20
2019-06-26T17:19:43.233Z,31.41
2019-06-26T17:22:09.445Z,31.78
2019-06-26T17:24:35.588Z,31.91
2019-06-26T17:27:01.864Z,31.98
2019-06-26T17:29:28.039Z,32.09
2019-06-26T17:31:54.237Z,32.38
2019-06-26T17:34:20.349Z,32.43
2019-06-26T17:36:46.680Z,32.51
2019-06-26T17:39:13.163Z,32.48
2019-06-26T17:41:39.947Z,33.06
2019-06-26T17:44:08.820Z,33.45
2019-06-26T17:46:35.086Z,33.20
2019-06-26T17:49:01.291Z,33.58
2019-06-26T17:51:27.623Z,33.45
2019-06-26T17:53:54.764Z,33.54
2019-06-26T17:56:21.322Z,33.75
2019-06-26T17:58:48.374Z,33.86
2019-06-26T18:01:16.397Z,34.00
2019-06-26T18:03:42.682Z,34.32
2019-06-26T18:06:09.030Z,34.56
2019-06-26T18:08:35.136Z,34.59
2019-06-26T18:11:01.369Z,34.88
2019-06-26T18:13:27.659Z,35.39
2019-06-26T18:15:53.918Z,35.12
2019-06-26T18:18:20.164Z,35.24
2019-06-26T18:20:46.456Z,36.00
2019-06-26T18:23:12.699Z,35.85
2019-06-26T18:25:40.317Z,35.72
2019-06-26T18:28:06.453Z,35.99
2019-06-26T18:30:33.702Z,36.20
2019-06-26T18:32:59.893Z,36.44
2019-06-26T18:35:26.140Z,36.26
2019-06-26T18:37:52.307Z,36.58
2019-06-26T18:40:18.849Z,36.62
2019-06-26T18:42:45.015Z,36.71
2019-06-26T18:45:11.952Z,37.29
2019-06-26T18:47:38.096Z,37.43
2019-06-26T18:50:07.667Z,37.51
2019-06-26T18:52:34.849Z,37.43
2019-06-26T18:55:01.475Z,37.85
2019-06-26T18:57:28.070Z,38.05
2019-06-26T18:59:54.258Z,38.11
2019-06-26T19:02:20.416Z,38.22
2019-06-26T19:04:47.569Z,38.42
2019-06-26T19:07:13.733Z,38.50
2019-06-26T19:09:39.972Z,38.51
2019-06-26T19:12:06.247Z,39.38
2019-06-26T19:14:33.646Z,39.93
2019-06-26T19:16:59.901Z,40.05
2019-06-26T19:19:26.213Z,39.78
2019-06-26T19:21:52.318Z,40.23
2019-06-26T19:24:18.636Z,40.55
2019-06-26T19:26:44.751Z,40.18
2019-06-26T19:29:11.085Z,40.24
2019-06-26T19:31:37.229Z,40.29
2019-06-26T19:34:03.759Z,40.32
2019-06-26T19:36:29.934Z,40.63
2019-06-26T19:38:56.174Z,40.82
2019-06-26T19:41:22.393Z,41.52
2019-06-26T19:43:48.665Z,41.49
2019-06-26T19:46:14.769Z,41.62
2019-06-26T19:48:40.959Z,41.86
2019-06-26T19:51:07.161Z,42.15
2019-06-26T19:53:33.471Z,42.32
2019-06-26T19:56:00.731Z,42.67
2019-06-26T19:58:27.106Z,42.99
2019-06-26T20:00:53.300Z,43.20
2019-06-26T20:03:19.473Z,43.52
2019-06-26T20:05:46.672Z,44.03
2019-06-26T20:08:12.812Z,44.22
2019-06-26T20:10:39.090Z,44.64
2019-06-26T20:13:06.549Z,45.04
2019-06-26T20:15:32.837Z,45.30
2019-06-26T20:17:59.766Z,45.86
2019-06-26T20:20:25.927Z,46.02
2019-06-26T20:22:52.338Z,46.39
2019-06-26T20:25:19.314Z,46.58
2019-06-26T20:27:45.448Z,46.88
2019-06-26T20:30:13.192Z,46.88
2019-06-26T20:32:39.478Z,46.94
2019-06-26T20:35:06.063Z,46.81
2019-06-26T20:37:33.271Z,46.99
2019-06-26T20:39:59.426Z,47.03
2019-06-26T20:42:25.587Z,47.27
2019-06-26T20:44:51.793Z,47.09
2019-06-26T20:47:17.931Z,47.07
2019-06-26T20:49:53.296Z,46.82
2019-06-26T20:52:12.330Z,46.65
2019-06-26T20:54:38.969Z,46.74
2019-06-26T20:57:05.828Z,46.55
2019-06-26T20:59:32.077Z,46.61
2019-06-26T21:01:58.352Z,46.73
2019-06-26T21:04:24.627Z,46.78
2019-06-26T21:06:50.826Z,46.72
2019-06-26T21:09:16.933Z,46.82
2019-06-26T21:11:43.278Z,47.08
2019-06-26T21:14:09.356Z,47.17
2019-06-26T21:16:35.575Z,47.43
2019-06-26T21:19:01.758Z,47.68
2019-06-26T21:21:27.956Z,47.90
2019-06-26T21:23:54.160Z,48.23
2019-06-26T21:26:20.271Z,48.10
2019-06-26T21:28:46.485Z,48.09
2019-06-26T21:31:12.687Z,48.47
2019-06-26T21:33:38.886Z,48.87
2019-06-26T21:36:05.043Z,49.12
2019-06-26T21:38:31.307Z,48.89
2019-06-26T21:40:58.067Z,49.14
2019-06-26T21:43:25.755Z,49.12
2019-06-26T21:45:52.206Z,49.57
2019-06-26T21:48:18.454Z,49.54
2019-06-26T21:50:44.638Z,49.63
2019-06-26T21:53:10.986Z,49.70
2019-06-26T21:55:39.478Z,49.99
2019-06-26T21:58:24.767Z,50.26
2019-06-26T22:01:09.839Z,50.25
2019-06-26T22:03:54.515Z,50.26
2019-06-26T22:06:24.755Z,50.41
2019-06-26T22:08:55.936Z,50.66
2019-06-26T22:11:22.260Z,50.76
2019-06-26T22:13:48.615Z,51.13
2019-06-26T22:16:14.880Z,51.30
2019-06-26T22:18:41.187Z,51.33
2019-06-26T22:21:07.916Z,51.59
2019-06-26T22:23:34.299Z,51.72
2019-06-26T22:26:00.569Z,52.05
2019-06-26T22:28:26.958Z,52.08
2019-06-26T22:30:53.216Z,52.38
2019-06-26T22:33:19.433Z,52.44
2019-06-26T22:35:45.553Z,52.34
2019-06-26T22:38:11.799Z,52.53
2019-06-26T22:40:37.991Z,52.45
2019-06-26T22:43:04.275Z,52.70
2019-06-26T22:45:30.376Z,52.82
2019-06-26T22:47:56.617Z,52.96
2019-06-26T22:50:22.793Z,53.03
2019-06-26T22:52:49.009Z,53.24
2019-06-26T22:55:15.361Z,53.31
2019-06-26T22:57:41.723Z,53.43
2019-06-26T23:00:11.612Z,53.63
2019-06-26T23:02:38.095Z,53.67
2019-06-26T23:05:04.894Z,53.88
2019-06-26T23:07:31.217Z,54.02
2019-06-26T23:09:57.510Z,54.00
2019-06-26T23:12:23.620Z,53.87
2019-06-26T23:14:49.823Z,54.01
2019-06-26T23:17:16.028Z,54.32
2019-06-26T23:19:42.257Z,54.37
2019-06-26T23:22:08.467Z,54.72
2019-06-26T23:24:34.676Z,54.95
2019-06-26T23:27:00.787Z,55.04
2019-06-26T23:29:26.989Z,55.13
2019-06-26T23:31:53.106Z,55.07
2019-06-26T23:34:19.321Z,55.49
2019-06-26T23:36:45.436Z,55.63
2019-06-26T23:39:11.614Z,55.61
2019-06-26T23:41:37.722Z,55.82
2019-06-26T23:44:03.903Z,55.68
2019-06-26T23:46:30.005Z,55.71
2019-06-26T23:48:56.230Z,55.53
2019-06-26T23:51:22.373Z,55.68
2019-06-26T23:53:48.628Z,55.57
2019-06-26T23:56:14.777Z,55.50
2019-06-26T23:58:40.995Z,55.42
